createdAt,value
2017-11-18T00:00:02.940Z,101970.48
2017-11-18T00:02:29.144Z,101970.06
2017-11-18T00:04:55.401Z,101962.63
2017-11-18T00:07:21.605Z,101956.48
2017-11-18T00:09:47.827Z,101949.91
2017-11-18T00:12:14.076Z,101952.55
2017-11-18T00:14:40.531Z,101954.33
2017-11-18T00:17:06.747Z,101945.14
2017-11-18T00:19:32.963Z,101941.64
2017-11-18T00:21:59.150Z,101931.13
2017-11-18T00:24:25.431Z,101927.19
2017-11-18T00:26:51.632Z,101924.98
2017-11-18T00:29:17.841Z,101924.98
2017-11-18T00:31:44.166Z,101927.16
2017-11-18T00:34:10.375Z,101923.25
2017-11-18T00:36:36.593Z,101926.73
2017-11-18T00:39:03.048Z,101924.55
2017-11-18T00:41:29.269Z,101913.64
2017-11-18T00:43:55.477Z,101921.07
2017-11-18T00:46:21.825Z,101912.33
2017-11-18T00:48:48.035Z,101902.70
2017-11-18T00:51:14.232Z,101907.06
2017-11-18T00:53:40.594Z,101902.69
2017-11-18T00:56:06.779Z,101889.53
2017-11-18T00:58:32.963Z,101889.12
2017-11-18T01:00:59.299Z,101895.27
2017-11-18T01:03:25.511Z,101887.83
2017-11-18T01:05:51.711Z,101890.45
2017-11-18T01:08:17.963Z,101891.77
2017-11-18T01:10:44.157Z,101886.08
2017-11-18T01:13:10.359Z,101875.13
2017-11-18T01:15:36.631Z,101878.64
2017-11-18T01:18:02.826Z,101877.31
2017-11-18T01:20:29.021Z,101876.47
2017-11-18T01:22:55.300Z,101870.78
2017-11-18T01:25:27.897Z,101869.44
2017-11-18T01:27:54.077Z,101862.90
2017-11-18T01:30:20.364Z,101863.38
2017-11-18T01:32:46.556Z,101865.98
2017-11-18T01:35:12.756Z,101860.75
2017-11-18T01:37:39.103Z,101857.67
2017-11-18T01:40:05.320Z,101855.55
2017-11-18T01:42:31.536Z,101844.59
2017-11-18T01:44:57.807Z,101838.88
2017-11-18T01:47:24.256Z,101831.89
2017-11-18T01:49:50.460Z,101834.52
2017-11-18T01:52:16.964Z,101825.77
2017-11-18T01:54:43.157Z,101811.73
2017-11-18T01:57:09.358Z,101796.88
2017-11-18T01:59:35.857Z,101799.91
2017-11-18T02:02:02.073Z,101782.89
2017-11-18T02:04:28.286Z,101786.42
2017-11-18T02:06:54.645Z,101778.53
2017-11-18T02:09:20.867Z,101768.47
2017-11-18T02:11:47.082Z,101775.91
2017-11-18T02:14:13.576Z,101771.09
2017-11-18T02:16:39.778Z,101774.62
2017-11-18T02:19:06.001Z,101770.67
2017-11-18T02:21:32.340Z,101759.73
2017-11-18T02:23:58.719Z,101758.42
2017-11-18T02:26:25.166Z,101745.72
2017-11-18T02:28:51.456Z,101736.98
2017-11-18T02:31:17.675Z,101726.50
2017-11-18T02:33:43.891Z,101719.09
2017-11-18T02:36:10.181Z,101716.01
2017-11-18T02:41:43.100Z,101699.36
2017-11-18T02:44:09.329Z,101689.76
2017-11-18T02:46:35.549Z,101685.83
2017-11-18T02:49:01.915Z,101684.95
2017-11-18T02:51:28.124Z,101682.34
2017-11-18T02:53:54.337Z,101674.97
2017-11-18T02:56:20.689Z,101668.40
2017-11-18T02:58:47.163Z,101665.77
2017-11-18T03:01:13.426Z,101659.20
2017-11-18T03:03:39.937Z,101658.37
2017-11-18T03:06:06.152Z,101654.43
2017-11-18T03:08:32.359Z,101646.95
2017-11-18T03:10:58.616Z,101650.47
2017-11-18T03:13:24.851Z,101639.53
2017-11-18T03:15:51.069Z,101642.64
2017-11-18T03:18:17.402Z,101634.80
2017-11-18T03:20:43.595Z,101633.96
2017-11-18T03:23:09.792Z,101623.87
2017-11-18T03:25:36.242Z,101612.01
2017-11-18T03:28:02.457Z,101601.52
2017-11-18T03:30:28.641Z,101606.81
2017-11-18T03:32:54.895Z,101601.59
2017-11-18T03:35:21.087Z,101602.91
2017-11-18T03:37:47.297Z,101591.99
2017-11-18T03:40:13.548Z,101588.50
2017-11-18T03:42:39.755Z,101575.83
2017-11-18T03:45:05.958Z,101579.77
2017-11-18T03:47:32.224Z,101576.69
2017-11-18T03:49:58.429Z,101577.55
2017-11-18T03:52:24.752Z,101563.61
2017-11-18T03:54:51.027Z,101564.46
2017-11-18T03:57:17.243Z,101559.23
2017-11-18T03:59:43.436Z,101556.62
2017-11-18T04:02:09.788Z,101558.00
2017-11-18T04:04:35.982Z,101554.02
2017-11-18T04:07:02.176Z,101553.55
2017-11-18T04:09:28.424Z,101548.75
2017-11-18T04:11:54.624Z,101556.20
2017-11-18T04:14:20.835Z,101548.37
2017-11-18T04:16:47.099Z,101545.78
2017-11-18T04:19:13.325Z,101537.88
2017-11-18T04:21:39.623Z,101533.92
2017-11-18T04:24:06.106Z,101525.64
2017-11-18T04:26:32.411Z,101519.48
2017-11-18T04:28:58.634Z,101509.00
2017-11-18T04:31:25.138Z,101510.30
2017-11-18T04:33:51.352Z,101509.43
2017-11-18T04:36:17.564Z,101509.91
2017-11-18T04:38:43.917Z,101495.92
2017-11-18T04:41:10.353Z,101484.95
2017-11-18T04:43:36.552Z,101493.30
2017-11-18T04:46:02.891Z,101477.50
2017-11-18T04:48:29.096Z,101483.17
2017-11-18T04:50:55.335Z,101477.08
2017-11-18T04:53:21.599Z,101478.89
2017-11-18T04:55:47.804Z,101479.31
2017-11-18T04:58:13.987Z,101463.13
2017-11-18T05:00:40.330Z,101457.90
2017-11-18T05:03:06.533Z,101457.91
2017-11-18T05:05:32.748Z,101464.04
2017-11-18T05:07:59.094Z,101456.18
2017-11-18T05:10:25.549Z,101443.51
2017-11-18T05:12:52.067Z,101436.52
2017-11-18T05:15:18.323Z,101436.06
2017-11-18T05:17:44.530Z,101422.51
2017-11-18T05:20:10.726Z,101407.63
2017-11-18T05:22:37.183Z,101415.07
2017-11-18T05:25:03.437Z,101401.09
2017-11-18T05:27:30.028Z,101395.00
2017-11-18T05:29:56.507Z,101395.44
2017-11-18T05:32:22.697Z,101408.56
2017-11-18T05:34:48.892Z,101402.00
2017-11-18T05:37:15.417Z,101383.16
2017-11-18T05:39:41.620Z,101388.39
2017-11-18T05:42:07.836Z,101373.52
2017-11-18T05:44:34.073Z,101375.30
2017-11-18T05:47:00.508Z,101371.42
2017-11-18T05:49:26.704Z,101376.20
2017-11-18T05:51:53.040Z,101360.09
2017-11-18T05:54:19.244Z,101349.11
2017-11-18T05:56:45.453Z,101342.16
2017-11-18T05:59:11.990Z,101336.50
2017-11-18T06:01:38.192Z,101333.47
2017-11-18T06:04:04.414Z,101332.17
2017-11-18T06:06:30.629Z,101337.86
2017-11-18T06:08:56.834Z,101332.17
2017-11-18T06:11:23.180Z,101317.73
2017-11-18T06:13:49.391Z,101319.91
2017-11-18T06:16:15.618Z,101310.77
2017-11-18T06:18:41.872Z,101295.42
2017-11-18T06:21:08.297Z,101302.46
2017-11-18T06:23:34.532Z,101300.73
2017-11-18T06:26:00.860Z,101299.00
2017-11-18T06:28:27.076Z,101300.69
2017-11-18T06:30:53.295Z,101296.34
2017-11-18T06:33:19.618Z,101298.91
2017-11-18T06:35:45.807Z,101293.25
2017-11-18T06:38:12.004Z,101278.89
2017-11-18T06:40:38.349Z,101276.73
2017-11-18T06:43:04.539Z,101279.75
2017-11-18T06:45:30.967Z,101274.05
2017-11-18T06:47:57.320Z,101264.92
2017-11-18T06:50:23.520Z,101267.98
2017-11-18T06:52:49.734Z,101275.44
2017-11-18T06:55:15.973Z,101280.59
2017-11-18T06:57:42.185Z,101266.66
2017-11-18T07:00:08.380Z,101266.63
2017-11-18T07:02:34.627Z,101264.47
2017-11-18T07:05:00.846Z,101262.69
2017-11-18T07:07:27.041Z,101258.70
2017-11-18T07:09:53.384Z,101249.98
2017-11-18T07:12:19.616Z,101254.34
2017-11-18T07:14:45.846Z,101249.52
2017-11-18T07:17:12.085Z,101246.46
2017-11-18T07:19:38.301Z,101243.87
2017-11-18T07:22:04.524Z,101240.77
2017-11-18T07:24:30.839Z,101238.52
2017-11-18T07:26:57.039Z,101231.13
2017-11-18T07:29:23.232Z,101241.27
2017-11-18T07:31:49.924Z,101232.52
2017-11-18T07:34:16.131Z,101228.52
2017-11-18T07:36:42.326Z,101223.73
2017-11-18T07:39:08.652Z,101218.45
2017-11-18T07:41:34.843Z,101214.52
2017-11-18T07:44:01.053Z,101210.17
2017-11-18T07:46:27.366Z,101217.14
2017-11-18T07:48:53.571Z,101205.77
2017-11-18T07:51:19.801Z,101195.30
2017-11-18T07:53:46.140Z,101200.98
2017-11-18T07:56:12.447Z,101197.90
2017-11-18T07:58:38.919Z,101193.09
2017-11-18T08:01:05.185Z,101187.36
2017-11-18T08:03:31.386Z,101189.55
2017-11-18T08:05:57.817Z,101196.57
2017-11-18T08:08:24.114Z,101185.66
2017-11-18T08:10:50.424Z,101169.04
2017-11-18T08:13:16.619Z,101158.16
2017-11-18T08:15:42.912Z,101145.45
2017-11-18T08:18:09.129Z,101138.44
2017-11-18T08:20:35.343Z,101139.29
2017-11-18T08:23:01.623Z,101138.83
2017-11-18T08:25:27.836Z,101133.08
2017-11-18T08:27:54.018Z,101140.52
2017-11-18T08:30:20.280Z,101130.11
2017-11-18T08:32:46.731Z,101121.33
2017-11-18T08:35:12.937Z,101106.88
2017-11-18T08:37:39.189Z,101105.09
2017-11-18T08:40:05.468Z,101114.69
2017-11-18T08:42:31.688Z,101104.66
2017-11-18T08:44:58.022Z,101097.69
2017-11-18T08:47:24.228Z,101089.33
2017-11-18T08:49:50.432Z,101093.20
2017-11-18T08:52:16.776Z,101083.61
2017-11-18T08:54:43.045Z,101088.37
2017-11-18T08:57:09.265Z,101070.47
2017-11-18T08:59:35.519Z,101075.28
2017-11-18T09:02:02.015Z,101058.28
2017-11-18T09:04:28.459Z,101066.23
2017-11-18T09:06:54.795Z,101049.97
2017-11-18T09:09:21.008Z,101042.74
2017-11-18T09:11:47.220Z,101041.02
2017-11-18T09:14:13.559Z,101043.18
2017-11-18T09:16:39.752Z,101053.22
2017-11-18T09:19:05.954Z,101044.08
2017-11-18T09:21:32.322Z,101052.51
2017-11-18T09:23:58.514Z,101042.53
2017-11-18T09:26:24.718Z,101035.97
2017-11-18T09:28:50.975Z,101014.55
2017-11-18T09:31:17.192Z,101017.67
2017-11-18T09:33:43.525Z,101022.02
2017-11-18T09:36:09.908Z,101012.80
2017-11-18T09:38:36.344Z,101016.73
2017-11-18T09:41:02.540Z,101007.23
2017-11-18T09:43:28.832Z,100991.98
2017-11-18T09:45:55.026Z,100991.58
2017-11-18T09:48:21.229Z,101004.69
2017-11-18T09:50:47.727Z,101000.73
2017-11-18T09:53:13.937Z,101008.24
2017-11-18T09:55:40.130Z,100987.29
2017-11-18T09:58:06.462Z,100976.82
2017-11-18T10:00:32.732Z,100980.73
2017-11-18T10:02:58.939Z,100973.67
2017-11-18T10:05:25.280Z,100980.79
2017-11-18T10:07:51.492Z,100981.25
2017-11-18T10:10:17.721Z,100976.00
2017-11-18T10:12:44.000Z,100976.03
2017-11-18T10:15:10.203Z,100979.50
2017-11-18T10:17:36.403Z,100959.45
2017-11-18T10:20:02.899Z,100976.53
2017-11-18T10:22:29.084Z,100980.55
2017-11-18T10:24:55.292Z,100979.23
2017-11-18T10:27:21.546Z,100994.50
2017-11-18T10:29:47.748Z,101010.22
2017-11-18T10:32:13.951Z,101010.24
2017-11-18T10:34:40.633Z,101017.70
2017-11-18T10:37:06.907Z,101022.07
2017-11-18T10:39:33.108Z,101027.31
2017-11-18T10:41:59.544Z,101022.48
2017-11-18T10:44:25.770Z,101018.98
2017-11-18T10:46:51.978Z,101028.98
2017-11-18T10:49:18.230Z,101035.98
2017-11-18T10:51:44.439Z,101042.07
2017-11-18T10:54:10.622Z,101038.98
2017-11-18T10:56:36.961Z,101033.66
2017-11-18T10:59:03.409Z,101034.13
2017-11-18T11:01:29.702Z,101034.51
2017-11-18T11:03:56.206Z,101042.73
2017-11-18T11:06:22.396Z,101051.06
2017-11-18T11:08:48.838Z,101064.56
2017-11-18T11:11:15.204Z,101068.96
2017-11-18T11:13:41.666Z,101068.09
2017-11-18T11:16:07.940Z,101063.30
2017-11-18T11:18:34.296Z,101069.41
2017-11-18T11:21:00.516Z,101058.00
2017-11-18T11:23:26.729Z,101047.52
2017-11-18T11:25:52.989Z,101043.55
2017-11-18T11:28:19.188Z,101039.64
2017-11-18T11:30:45.377Z,101034.92
2017-11-18T11:36:02.138Z,101011.62
2017-11-18T11:38:28.505Z,101006.81
2017-11-18T11:40:54.999Z,101028.24
2017-11-18T11:43:21.353Z,101012.07
2017-11-18T11:45:47.571Z,100992.80
2017-11-18T11:48:13.775Z,100998.48
2017-11-18T11:50:40.104Z,100984.52
2017-11-18T11:53:06.295Z,100981.48
2017-11-18T11:55:32.525Z,100981.92
2017-11-18T11:57:58.781Z,100972.69
2017-11-18T12:00:25.215Z,100968.34
2017-11-18T12:02:51.459Z,100956.97
2017-11-18T12:05:17.819Z,100958.72
2017-11-18T12:07:44.032Z,100941.73
2017-11-18T12:10:10.311Z,100945.61
2017-11-18T12:12:36.644Z,100922.40
2017-11-18T12:15:02.882Z,100933.73
2017-11-18T12:17:29.126Z,100927.18
2017-11-18T12:19:55.372Z,100930.15
2017-11-18T12:22:21.679Z,100936.62
2017-11-18T12:24:47.876Z,100937.47
2017-11-18T12:27:14.227Z,100935.25
2017-11-18T12:29:40.683Z,100933.47
2017-11-18T12:32:06.893Z,100937.80
2017-11-18T12:34:33.144Z,100935.65
2017-11-18T12:36:59.579Z,100934.43
2017-11-18T12:39:25.816Z,100934.90
2017-11-18T12:41:52.338Z,100935.34
2017-11-18T12:44:18.544Z,100936.67
2017-11-18T12:46:44.772Z,100933.21
2017-11-18T12:49:11.132Z,100925.74
2017-11-18T12:51:37.344Z,100934.46
2017-11-18T12:54:03.608Z,100959.45
2017-11-18T12:56:29.845Z,100952.45
2017-11-18T12:58:56.212Z,100950.70
2017-11-18T13:01:22.397Z,100952.02
2017-11-18T13:03:48.901Z,100944.55
2017-11-18T13:06:15.127Z,100941.02
2017-11-18T13:14:08.444Z,100951.80
2017-11-18T13:16:56.370Z,100941.66
2017-11-18T13:19:26.319Z,100938.05
2017-11-18T13:21:55.120Z,100937.77
2017-11-18T13:24:21.782Z,100939.61
2017-11-18T13:26:49.369Z,100961.77
2017-11-18T13:29:18.981Z,100958.30
2017-11-18T13:31:45.583Z,100967.17
2017-11-18T13:34:16.641Z,100959.87
2017-11-18T13:36:43.248Z,100959.52
2017-11-18T13:39:10.048Z,100956.02
2017-11-18T13:41:38.842Z,100959.90
2017-11-18T13:44:07.693Z,100963.73
2017-11-18T13:46:34.232Z,100963.11
2017-11-18T13:49:00.955Z,100965.70
2017-11-18T13:51:27.527Z,100970.52
2017-11-18T13:53:54.108Z,100960.95
2017-11-18T13:56:20.842Z,100958.83
2017-11-18T13:58:48.418Z,100968.92
2017-11-18T14:01:15.066Z,100965.89
2017-11-18T14:03:41.724Z,100965.05
2017-11-18T14:06:08.316Z,100969.93
2017-11-18T14:08:34.728Z,100967.30
2017-11-18T14:11:01.653Z,100965.18
2017-11-18T14:13:28.239Z,100965.71
2017-11-18T14:15:54.863Z,100966.19
2017-11-18T14:18:21.626Z,100963.99
2017-11-18T14:20:48.421Z,100969.68
2017-11-18T14:23:14.650Z,100972.40
2017-11-18T14:25:40.982Z,100965.41
2017-11-18T14:28:07.290Z,100963.69
2017-11-18T14:30:33.498Z,100973.25
2017-11-18T14:32:59.912Z,100971.02
2017-11-18T14:35:26.140Z,100966.12
2017-11-18T14:37:52.431Z,100967.77
2017-11-18T14:40:18.741Z,100969.49
2017-11-18T14:42:44.939Z,100971.71
2017-11-18T14:45:11.156Z,100968.68
2017-11-18T14:47:37.440Z,100968.77
2017-11-18T14:50:03.645Z,100963.96
2017-11-18T14:52:30.091Z,100965.74
2017-11-18T14:54:56.493Z,100970.96
2017-11-18T14:57:22.752Z,100967.99
2017-11-18T14:59:49.017Z,100967.53
2017-11-18T15:02:15.609Z,100967.55
2017-11-18T15:04:41.861Z,100969.81
2017-11-18T15:07:08.125Z,100973.74
2017-11-18T15:09:34.676Z,100972.09
2017-11-18T15:12:00.973Z,100972.52
2017-11-18T15:14:38.287Z,100975.14
2017-11-18T15:17:10.601Z,100971.27
2017-11-18T15:19:42.951Z,100967.36
2017-11-18T15:22:15.184Z,100973.48
2017-11-18T15:24:47.529Z,100973.52
2017-11-18T15:27:19.827Z,100973.58
2017-11-18T15:29:54.167Z,100967.95
2017-11-18T15:35:30.467Z,100990.32
2017-11-18T15:38:02.660Z,100988.59
2017-11-18T15:40:29.047Z,100980.73
2017-11-18T15:42:55.507Z,100983.79
2017-11-18T15:45:21.924Z,100984.10
2017-11-18T15:47:54.189Z,100985.83
2017-11-18T15:53:36.356Z,100983.58
2017-11-18T15:59:20.483Z,100978.64
2017-11-18T16:01:46.887Z,100976.05
2017-11-18T16:04:19.083Z,100971.27
2017-11-18T16:06:54.322Z,100976.92
2017-11-18T16:09:20.568Z,100973.86
2017-11-18T16:11:46.806Z,100975.27
2017-11-18T16:14:13.135Z,100978.36
2017-11-18T16:16:39.375Z,100981.92
2017-11-18T16:19:05.650Z,100980.14
2017-11-18T16:21:31.916Z,100980.17
2017-11-18T16:23:58.113Z,100981.05
2017-11-18T16:26:24.319Z,100978.92
2017-11-18T16:28:50.813Z,100987.20
2017-11-18T16:31:17.349Z,100979.86
2017-11-18T16:33:43.533Z,100989.94
2017-11-18T16:36:09.804Z,100990.88
2017-11-18T16:38:36.015Z,100987.75
2017-11-18T16:41:02.230Z,100986.47
2017-11-18T16:43:28.508Z,100984.29
2017-11-18T16:45:54.938Z,100986.84
2017-11-18T16:48:21.394Z,100987.31
2017-11-18T16:50:47.724Z,100981.60
2017-11-18T16:53:13.938Z,100987.29
2017-11-18T16:55:40.145Z,100981.66
2017-11-18T16:58:06.513Z,100983.00
2017-11-18T17:00:32.824Z,100978.60
2017-11-18T17:02:59.278Z,100977.28
2017-11-18T17:05:25.614Z,100979.47
2017-11-18T17:07:51.842Z,100978.56
2017-11-18T17:10:18.107Z,100980.81
2017-11-18T17:12:44.351Z,100979.51
2017-11-18T17:15:10.556Z,100977.81
2017-11-18T17:17:36.969Z,100979.59
2017-11-18T17:20:03.189Z,100977.38
2017-11-18T17:22:29.404Z,100975.19
2017-11-18T17:24:55.913Z,100975.19
2017-11-18T17:27:22.119Z,100979.06
2017-11-18T17:29:48.354Z,100979.13
2017-11-18T17:32:14.782Z,100970.78
2017-11-18T17:34:41.098Z,100975.22
2017-11-18T17:37:07.451Z,100976.50
2017-11-18T17:39:33.789Z,100972.16
2017-11-18T17:42:06.379Z,100974.75
2017-11-18T17:44:32.591Z,100983.91
2017-11-18T17:46:58.814Z,100990.94
2017-11-18T17:49:25.333Z,100979.56
2017-11-18T17:51:51.546Z,100957.78
2017-11-18T17:54:17.749Z,100967.84
2017-11-18T17:56:44.071Z,100965.19
2017-11-18T17:59:10.282Z,100966.91
2017-11-18T18:01:36.499Z,100961.69
2017-11-18T18:04:02.783Z,100957.32
2017-11-18T18:06:28.989Z,100956.45
2017-11-18T18:08:55.210Z,100954.27
2017-11-18T18:11:21.546Z,100948.14
2017-11-18T18:13:47.778Z,100948.98
2017-11-18T18:16:14.002Z,100948.17
2017-11-18T18:18:40.234Z,100956.45
2017-11-18T18:21:06.438Z,100959.95
2017-11-18T18:23:32.648Z,100965.59
2017-11-18T18:25:59.070Z,100964.73
2017-11-18T18:28:25.288Z,100969.09
2017-11-18T18:30:51.477Z,100975.25
2017-11-18T18:33:17.808Z,100990.55
2017-11-18T18:35:44.012Z,100990.49
2017-11-18T18:38:10.209Z,100991.40
2017-11-18T18:40:36.570Z,100992.71
2017-11-18T18:43:05.310Z,100985.74
2017-11-18T18:45:31.788Z,100987.95
2017-11-18T18:47:58.039Z,100976.56
2017-11-18T18:50:24.462Z,100980.47
2017-11-18T18:52:50.651Z,100985.72
2017-11-18T18:55:16.994Z,100988.72
2017-11-18T18:57:43.181Z,100998.34
2017-11-18T19:00:09.604Z,101005.80
2017-11-18T19:02:41.982Z,101004.95
2017-11-18T19:05:08.421Z,101001.86
2017-11-18T19:07:34.626Z,100999.73
2017-11-18T19:10:00.917Z,101004.08
2017-11-18T19:12:27.127Z,101001.86
2017-11-18T19:14:53.323Z,101002.77
2017-11-18T19:17:19.621Z,101008.48
2017-11-18T19:19:45.832Z,101002.85
2017-11-18T19:22:12.032Z,100999.33
2017-11-18T19:24:38.370Z,100996.33
2017-11-18T19:27:04.576Z,100990.20
2017-11-18T19:29:30.786Z,100986.30
2017-11-18T19:31:57.047Z,100958.75
2017-11-18T19:34:23.481Z,100927.77
2017-11-18T19:36:49.909Z,100929.08
2017-11-18T19:39:16.148Z,100946.13
2017-11-18T19:41:42.334Z,100957.94
2017-11-18T19:44:08.565Z,100962.39
2017-11-18T19:46:34.833Z,100960.70
2017-11-18T19:49:01.379Z,100962.45
2017-11-18T19:51:27.817Z,100952.89
2017-11-18T19:53:54.074Z,100955.48
2017-11-18T19:56:20.264Z,100956.36
2017-11-18T19:58:46.445Z,100953.33
2017-11-18T20:01:12.705Z,100955.58
2017-11-18T20:03:39.132Z,100951.14
2017-11-18T20:06:05.306Z,100951.11
2017-11-18T20:08:31.569Z,100943.73
2017-11-18T20:10:57.762Z,100948.05
2017-11-18T20:13:23.951Z,100950.27
2017-11-18T20:15:50.312Z,100943.72
2017-11-18T20:18:16.525Z,100941.58
2017-11-18T20:20:42.789Z,100942.00
2017-11-18T20:23:09.269Z,100943.80
2017-11-18T20:25:35.448Z,100956.04
2017-11-18T20:28:01.642Z,100951.67
2017-11-18T20:30:27.844Z,100953.39
2017-11-18T20:32:54.055Z,100960.41
2017-11-18T20:35:20.422Z,100952.66
2017-11-18T20:37:46.968Z,100958.31
2017-11-18T20:40:13.165Z,100963.53
2017-11-18T20:42:39.417Z,100964.78
2017-11-18T20:45:05.634Z,100959.53
2017-11-18T20:47:31.828Z,100975.22
2017-11-18T20:49:58.412Z,100979.67
2017-11-18T20:52:24.615Z,100965.25
2017-11-18T20:54:50.810Z,100951.67
2017-11-18T20:57:17.424Z,100945.58
2017-11-18T20:59:43.613Z,100936.78
2017-11-18T21:02:09.820Z,100924.53
2017-11-18T21:04:36.080Z,100942.43
2017-11-18T21:07:02.299Z,100941.47
2017-11-18T21:09:28.491Z,100945.05
2017-11-18T21:11:54.824Z,100925.82
2017-11-18T21:14:21.031Z,100935.49
2017-11-18T21:16:47.455Z,100941.20
2017-11-18T21:19:13.725Z,100929.89
2017-11-18T21:21:39.919Z,100916.41
2017-11-18T21:24:06.347Z,100934.73
2017-11-18T21:26:32.838Z,100940.86
2017-11-18T21:28:59.085Z,100935.98
2017-11-18T21:31:25.295Z,100941.67
2017-11-18T21:33:51.855Z,100932.00
2017-11-18T21:36:18.049Z,100929.49
2017-11-18T21:38:44.264Z,100921.16
2017-11-18T21:41:10.591Z,100907.58
2017-11-18T21:43:36.790Z,100902.30
2017-11-18T21:46:03.260Z,100886.16
2017-11-18T21:48:29.535Z,100892.28
2017-11-18T21:50:55.726Z,100888.78
2017-11-18T21:53:21.926Z,100889.69
2017-11-18T21:55:48.276Z,100885.78
2017-11-18T21:58:14.466Z,100889.34
2017-11-18T22:00:40.912Z,100884.47
2017-11-18T22:03:07.174Z,100884.00
2017-11-18T22:05:33.357Z,100874.86
2017-11-18T22:07:59.544Z,100878.81
2017-11-18T22:10:26.045Z,100866.58
2017-11-18T22:12:52.247Z,100856.06
2017-11-18T22:15:18.413Z,100858.30
2017-11-18T22:17:44.667Z,100853.50
2017-11-18T22:20:10.848Z,100846.51
2017-11-18T22:22:37.099Z,100842.58
2017-11-18T22:25:03.419Z,100838.64
2017-11-18T22:27:29.871Z,100833.39
2017-11-18T22:29:56.290Z,100830.30
2017-11-18T22:32:22.570Z,100845.20
2017-11-18T22:34:48.995Z,100839.98
2017-11-18T22:37:15.291Z,100836.02
2017-11-18T22:39:41.626Z,100836.45
2017-11-18T22:42:07.822Z,100834.27
2017-11-18T22:44:34.010Z,100824.25
2017-11-18T22:47:00.371Z,100824.72
2017-11-18T22:49:26.573Z,100823.31
2017-11-18T22:51:52.787Z,100817.25
2017-11-18T22:54:19.031Z,100810.70
2017-11-18T22:56:45.228Z,100799.34
2017-11-18T22:59:11.403Z,100792.41
2017-11-18T23:01:37.744Z,100788.95
2017-11-18T23:04:04.014Z,100785.02
2017-11-18T23:06:30.203Z,100778.86
2017-11-18T23:08:56.527Z,100770.52
2017-11-18T23:11:22.721Z,100765.72
2017-11-18T23:13:48.910Z,100777.55
2017-11-18T23:16:15.201Z,100788.01
2017-11-18T23:18:41.626Z,100785.86
2017-11-18T23:21:07.807Z,100788.44
2017-11-18T23:23:34.467Z,100784.54
2017-11-18T23:26:00.647Z,100777.08
2017-11-18T23:28:26.861Z,100775.33
2017-11-18T23:30:53.122Z,100765.38
2017-11-18T23:33:19.306Z,100769.28
2017-11-18T23:35:45.494Z,100760.13
2017-11-18T23:38:11.745Z,100768.44
2017-11-18T23:40:37.937Z,100766.22
2017-11-18T23:43:04.131Z,100759.63
2017-11-18T23:45:30.689Z,100758.32
2017-11-18T23:47:56.910Z,100750.92
2017-11-18T23:50:23.136Z,100757.95
2017-11-18T23:52:49.387Z,100757.54
2017-11-18T23:55:15.588Z,100765.41
2017-11-18T23:57:41.918Z,100751.39
